Dahlonega, GA

10:10 PM EST on November 23, 2014 (GMT -0500)
Gilmer Memorial | Change Station
CLOSE
Current Station
Airport
Location: Gainesville,
Elevation: 1276 ft
Nearby Weather Stations

Elev 1276 ft 34.27 °N, 83.83 °W | Updated 17 minutes ago

Overcast
Overcast
53 °F
Feels Like 53 °F
N
8
Wind Variable Wind from South

Today
High -- | Low -- °F
--% Chance of Precip.
Yesterday
High -- | Low -- °F
Precip. -- in
7:17 AM 5:27 PM
Waxing Crescent, 3% visible
Pressure 29.75 in
Visibility 9.0 miles
Clouds Few 500 ft
Scattered Clouds 2100 ft
Overcast 3600 ft
Dew Point 52 °F
Humidity 96%
Rainfall 1.92 in
Snow Depth Not available.
UV 0 out of 12
Pollen .30 out of 12
Air Quality Not available.
Flu Activity Not available.
METAR KGVL 240253Z AUTO 18007KT 9SM FEW005 SCT021 OVC036 12/11 A2976 RMK AO2 SLP072 60000 T01170111 51006

More Conditions Fewer Conditions

Pressure 29.75 in
Visibility 9.0 miles
Clouds Few 500 ft
Scattered Clouds 2100 ft
Overcast 3600 ft
Dew Point 52 °F
Humidity 96%
Rainfall 1.92 in
Snow Depth Not available.
UV 0 out of 12
Pollen .30 out of 12
Air Quality Not available.
Flu Activity Not available.
METAR KGVL 240253Z AUTO 18007KT 9SM FEW005 SCT021 OVC036 12/11 A2976 RMK AO2 SLP072 60000 T01170111 51006

More Conditions Fewer Conditions

10-Day Weather Forecast

Almanac

Astronomy

Nov. 23, 2014 Rise Set
Actual Time
Civil Twilight
Nautical Twilight
Astronomical Twilight
Moon
Length of Visible Light
Length of Day
Tomorrow will be .
, % of the Moon is Illuminated

Today's Extremes

State Highs State Lows

Community

WunderPhotos

Upload Photos

1,773,257 photos uploaded!

WunderBlogs® & News

Nearby

Air Quality

  Air Quality AQ Index Pollutant
Not available.

Snow Depth

Station Depth Elevation

Earthquake Activity

City Distance Mag. Time & Date
Minimum magnitude displayed is 2.5.

Coastal Water Temperatures

Place Temperature

Nearby Weather Stations